Hyundai Forward — 3EJY9 — position and weather

sailwx.info

Track history (hours):
 
Tides and Currents Weather Stations Pressure Air Temp Water Temp Dewpoint Dewpoint Depression Visibility Wind Speed Wind Dir Waves Ship Positions

Hyundai Forward

Last reported at 2014-Nov-28 15:33 UTC. Time now 2014-Nov-28 15:53 UTC.
Position N 32°27' W 124°29'.

Length 294 m; draft 10.7 m.

Type: Ship (hazmat cat A). MMSI: 372652000.

Date/timePositionNaut miles runAvg speedWind from/ knotsBaromVisibWave heightAir tempDewpointWater temp
2014-Nov-28 15:33N 32°27' W 124°29'1414.4
2014-Nov-28 14:33N 32°18' W 124°16'1414.2
2014-Nov-28 13:33N 32°08' W 124°04'1414.3
2014-Nov-28 12:33N 31°58' W 123°51'1414.4
2014-Nov-28 11:33N 31°48' W 123°39'1414.5
2014-Nov-28 10:33N 31°39' W 123°27'1514.8
2014-Nov-28 09:33N 31°29' W 123°14'1515.0
2014-Nov-28 08:33N 31°18' W 123°01'1515.1
2014-Nov-28 07:33N 31°08' W 122°48'1514.8
2014-Nov-28 06:33N 30°58' W 122°35'1514.7
2014-Nov-28 05:34N 30°48' W 122°23'1514.7
2014-Nov-28 04:33N 30°38' W 122°10'1514.8
2014-Nov-28 03:33N 30°28' W 121°57'1514.7
2014-Nov-28 02:33N 30°19' W 121°44'1514.6
2014-Nov-28 01:33N 30°10' W 121°31'1514.6
2014-Nov-28 00:33N 30°01' W 121°17'1514.6
2014-Nov-27 23:33N 29°52' W 121°04'1514.5
2014-Nov-27 22:33N 29°43' W 120°51'1414.5
2014-Nov-27 21:33N 29°34' W 120°38'1514.7
2014-Nov-27 20:33N 29°25' W 120°24'1414.6
2014-Nov-27 19:33N 29°16' W 120°11'1514.6
2014-Nov-27 18:33N 29°07' W 119°58'1414.3
2014-Nov-27 17:33N 28°58' W 119°46'1414.3
2014-Nov-27 16:33N 28°49' W 119°33'1414.5
2014-Nov-27 15:33N 28°40' W 119°20'1514.9
2014-Nov-27 14:33N 28°31' W 119°06'1514.8
2014-Nov-27 13:31N 28°21' W 118°53'5814.5
2014-Nov-27 09:32N 27°46' W 118°01'2914.6
2014-Nov-27 07:33N 27°28' W 117°36'  
Track history (hours):
 
Tides and Currents Weather Stations Pressure Air Temp Water Temp Dewpoint Dewpoint Depression Visibility Wind Speed Wind Dir Waves Ship Positions

Hyundai Forward

Last reported at 2014-Nov-28 15:33 UTC. Time now 2014-Nov-28 15:53 UTC.
Position N 32°27' W 124°29'.

Length 294 m; draft 10.7 m.

Type: Ship (hazmat cat A). MMSI: 372652000.

Date/timePositionNaut miles runAvg speedWind from/ knotsBaromVisibWave heightAir tempDewpointWater temp
2014-Nov-28 15:33N 32°27' W 124°29'1414.4
2014-Nov-28 14:33N 32°18' W 124°16'1414.2
2014-Nov-28 13:33N 32°08' W 124°04'1414.3
2014-Nov-28 12:33N 31°58' W 123°51'1414.4
2014-Nov-28 11:33N 31°48' W 123°39'1414.5
2014-Nov-28 10:33N 31°39' W 123°27'1514.8
2014-Nov-28 09:33N 31°29' W 123°14'1515.0
2014-Nov-28 08:33N 31°18' W 123°01'1515.1
2014-Nov-28 07:33N 31°08' W 122°48'1514.8
2014-Nov-28 06:33N 30°58' W 122°35'1514.7
2014-Nov-28 05:34N 30°48' W 122°23'1514.7
2014-Nov-28 04:33N 30°38' W 122°10'1514.8
2014-Nov-28 03:33N 30°28' W 121°57'1514.7
2014-Nov-28 02:33N 30°19' W 121°44'1514.6
2014-Nov-28 01:33N 30°10' W 121°31'1514.6
2014-Nov-28 00:33N 30°01' W 121°17'1514.6
2014-Nov-27 23:33N 29°52' W 121°04'1514.5
2014-Nov-27 22:33N 29°43' W 120°51'1414.5
2014-Nov-27 21:33N 29°34' W 120°38'1514.7
2014-Nov-27 20:33N 29°25' W 120°24'1414.6
2014-Nov-27 19:33N 29°16' W 120°11'1514.6
2014-Nov-27 18:33N 29°07' W 119°58'1414.3
2014-Nov-27 17:33N 28°58' W 119°46'1414.3
2014-Nov-27 16:33N 28°49' W 119°33'1414.5
2014-Nov-27 15:33N 28°40' W 119°20'1514.9
2014-Nov-27 14:33N 28°31' W 119°06'1514.8
2014-Nov-27 13:31N 28°21' W 118°53'5814.5
2014-Nov-27 09:32N 27°46' W 118°01'2914.6
2014-Nov-27 07:33N 27°28' W 117°36'  

Dump ship's entire track history